createdAt,value
2022-12-05T00:00:03.391Z,1.10
2022-12-05T00:01:03.396Z,1.10
2022-12-05T00:02:03.340Z,1.10
2022-12-05T00:03:03.236Z,1.10
2022-12-05T00:04:03.309Z,1.10
2022-12-05T00:05:03.279Z,1.10
2022-12-05T00:06:03.188Z,1.10
2022-12-05T00:07:03.168Z,1.10
2022-12-05T00:08:03.095Z,1.10
2022-12-05T00:09:03.034Z,1.10
2022-12-05T00:10:02.918Z,1.10
2022-12-05T00:11:02.865Z,1.10
2022-12-05T00:12:02.853Z,1.10
2022-12-05T00:13:02.709Z,1.10
2022-12-05T00:14:02.665Z,1.10
2022-12-05T00:15:03.515Z,1.10
2022-12-05T00:16:03.544Z,1.10
2022-12-05T00:17:03.609Z,1.10
2022-12-05T00:18:03.505Z,1.10
2022-12-05T00:19:03.441Z,1.10
2022-12-05T00:20:03.631Z,1.10
2022-12-05T00:21:03.156Z,1.10
2022-12-05T00:22:03.102Z,1.10
2022-12-05T00:23:03.126Z,1.10
2022-12-05T00:24:03.028Z,1.10
2022-12-05T00:25:02.889Z,1.10
2022-12-05T00:26:02.907Z,1.10
2022-12-05T00:27:02.798Z,1.10
2022-12-05T00:28:02.821Z,1.10
2022-12-05T00:29:02.633Z,1.10
2022-12-05T00:30:03.545Z,1.10
2022-12-05T00:31:03.454Z,1.10
2022-12-05T00:32:03.375Z,1.10
2022-12-05T00:33:03.338Z,1.10
2022-12-05T00:34:03.327Z,1.10
2022-12-05T00:35:03.380Z,1.10
2022-12-05T00:36:03.255Z,1.10
2022-12-05T00:37:03.322Z,1.10
2022-12-05T00:38:03.217Z,1.10
2022-12-05T00:39:03.155Z,1.10
2022-12-05T00:40:03.054Z,1.10
2022-12-05T00:41:02.958Z,1.10
2022-12-05T00:42:02.970Z,1.10
2022-12-05T00:43:03.022Z,1.10
2022-12-05T00:44:02.956Z,1.10
2022-12-05T00:45:02.882Z,1.10
2022-12-05T00:46:02.816Z,1.10
2022-12-05T00:47:02.639Z,1.10
2022-12-05T00:48:02.624Z,1.10
2022-12-05T00:49:03.514Z,1.10
2022-12-05T00:50:03.510Z,1.10
2022-12-05T00:51:03.367Z,1.10
2022-12-05T00:52:03.332Z,1.10
2022-12-05T00:53:03.335Z,1.10
2022-12-05T00:54:03.189Z,1.10
2022-12-05T00:55:03.148Z,1.10
2022-12-05T00:56:03.014Z,1.10
2022-12-05T00:57:02.957Z,1.10
2022-12-05T00:58:02.867Z,1.10
2022-12-05T00:59:02.809Z,1.10
2022-12-05T01:00:02.837Z,1.10
2022-12-05T01:01:02.705Z,1.10
2022-12-05T01:02:02.590Z,1.10
2022-12-05T01:03:03.512Z,1.10
2022-12-05T01:04:03.474Z,1.10
2022-12-05T01:05:03.502Z,1.10
2022-12-05T01:06:03.395Z,1.10
2022-12-05T01:07:03.259Z,1.10
2022-12-05T01:08:03.210Z,1.10
2022-12-05T01:09:03.092Z,1.10
2022-12-05T01:10:03.231Z,1.10
2022-12-05T01:11:03.223Z,1.10
2022-12-05T01:12:03.142Z,1.10
2022-12-05T01:13:03.218Z,1.10
2022-12-05T01:14:03.053Z,1.10
2022-12-05T01:15:02.960Z,1.10
2022-12-05T01:16:02.960Z,1.10
2022-12-05T01:17:02.886Z,1.10
2022-12-05T01:18:02.804Z,1.10
2022-12-05T01:19:02.715Z,1.10
2022-12-05T01:20:02.718Z,1.10
2022-12-05T01:21:02.651Z,1.10
2022-12-05T01:22:03.547Z,1.10
2022-12-05T01:23:03.481Z,1.10
2022-12-05T01:24:03.375Z,1.10
2022-12-05T01:25:03.363Z,1.10
2022-12-05T01:26:03.339Z,1.10
2022-12-05T01:27:03.250Z,1.10
2022-12-05T01:28:03.184Z,1.10
2022-12-05T01:29:03.123Z,1.10
2022-12-05T01:30:02.978Z,1.10
2022-12-05T01:31:02.966Z,1.10
2022-12-05T01:32:02.838Z,1.10
2022-12-05T01:33:02.794Z,1.10
2022-12-05T01:34:02.831Z,1.10
2022-12-05T01:35:02.702Z,1.10
2022-12-05T01:36:02.725Z,1.10
2022-12-05T01:37:02.618Z,1.10
2022-12-05T01:38:02.625Z,1.10
2022-12-05T01:39:03.499Z,1.10
2022-12-05T01:40:03.387Z,1.10
2022-12-05T01:41:03.389Z,1.10
2022-12-05T01:42:03.315Z,1.10
2022-12-05T01:43:03.275Z,1.10
2022-12-05T01:44:03.182Z,1.10
2022-12-05T01:45:03.083Z,1.10
2022-12-05T01:46:02.980Z,1.10
2022-12-05T01:47:02.881Z,1.10
2022-12-05T01:48:02.786Z,1.10
2022-12-05T01:49:02.715Z,1.10
2022-12-05T01:50:02.744Z,1.10
2022-12-05T01:51:02.648Z,1.10
2022-12-05T01:52:02.587Z,1.10
2022-12-05T01:53:03.593Z,1.10
2022-12-05T01:54:03.565Z,1.10
2022-12-05T01:55:03.437Z,1.10
2022-12-05T01:56:03.409Z,1.10
2022-12-05T01:57:03.422Z,1.10
2022-12-05T01:58:03.503Z,1.10
2022-12-05T01:59:03.383Z,1.10
2022-12-05T02:00:03.441Z,1.10
2022-12-05T02:01:03.486Z,1.10
2022-12-05T02:02:03.504Z,1.10
2022-12-05T02:03:03.442Z,1.10
2022-12-05T02:04:03.304Z,1.10
2022-12-05T02:05:03.269Z,1.10
2022-12-05T02:06:03.158Z,1.10
2022-12-05T02:07:03.131Z,1.10
2022-12-05T02:08:03.004Z,1.10
2022-12-05T02:09:02.915Z,1.10
2022-12-05T02:10:02.768Z,1.10
2022-12-05T02:11:02.723Z,1.10
2022-12-05T02:12:02.736Z,1.10
2022-12-05T02:13:02.743Z,1.10
2022-12-05T02:14:02.688Z,1.10
2022-12-05T02:15:02.684Z,1.10
2022-12-05T02:16:02.733Z,1.10
2022-12-05T02:17:02.744Z,1.10
2022-12-05T02:18:03.529Z,1.10
2022-12-05T02:19:03.560Z,1.10
2022-12-05T02:20:03.464Z,1.10
2022-12-05T02:21:03.395Z,1.10
2022-12-05T02:22:03.230Z,1.10
2022-12-05T02:23:03.228Z,1.10
2022-12-05T02:24:03.066Z,1.10
2022-12-05T02:25:03.006Z,1.10
2022-12-05T02:26:02.945Z,1.10
2022-12-05T02:27:02.954Z,1.10
2022-12-05T02:28:02.831Z,1.10
2022-12-05T02:29:02.786Z,1.10
2022-12-05T02:30:02.764Z,1.10
2022-12-05T02:31:02.833Z,1.10
2022-12-05T02:32:02.738Z,1.10
2022-12-05T02:33:02.655Z,1.10
2022-12-05T02:34:03.558Z,1.10
2022-12-05T02:35:03.411Z,1.10
2022-12-05T02:36:03.435Z,1.10
2022-12-05T02:37:03.248Z,1.10
2022-12-05T02:38:03.223Z,1.10
2022-12-05T02:39:03.088Z,1.10
2022-12-05T02:40:03.060Z,1.10
2022-12-05T02:41:02.965Z,1.10
2022-12-05T02:42:02.828Z,1.10
2022-12-05T02:43:02.794Z,1.10
2022-12-05T02:44:02.750Z,1.10
2022-12-05T02:45:02.613Z,1.10
2022-12-05T02:46:03.500Z,1.10
2022-12-05T02:47:03.371Z,1.10
2022-12-05T02:48:03.403Z,1.10
2022-12-05T02:49:03.192Z,1.10
2022-12-05T02:50:03.125Z,1.10
2022-12-05T02:51:03.026Z,1.10
2022-12-05T02:52:03.104Z,1.10
2022-12-05T02:53:03.031Z,1.10
2022-12-05T02:54:03.008Z,1.10
2022-12-05T02:55:02.876Z,1.10
2022-12-05T02:56:02.837Z,1.10
2022-12-05T02:57:02.666Z,1.10
2022-12-05T02:58:02.673Z,1.10
2022-12-05T02:59:03.577Z,1.10
2022-12-05T03:00:03.455Z,1.10
2022-12-05T03:01:03.363Z,1.10
2022-12-05T03:02:03.371Z,1.10
2022-12-05T03:03:03.333Z,1.10
2022-12-05T03:04:03.166Z,1.10
2022-12-05T03:05:03.231Z,1.10
2022-12-05T03:06:03.077Z,1.10
2022-12-05T03:07:03.014Z,1.10
2022-12-05T03:08:02.892Z,1.10
2022-12-05T03:09:02.814Z,1.10
2022-12-05T03:10:02.819Z,1.10
2022-12-05T03:11:02.680Z,1.10
2022-12-05T03:12:03.607Z,1.10
2022-12-05T03:13:03.437Z,1.10
2022-12-05T03:14:03.494Z,1.10
2022-12-05T03:15:03.346Z,1.10
2022-12-05T03:16:03.408Z,1.10
2022-12-05T03:17:03.404Z,1.10
2022-12-05T03:18:03.159Z,1.10
2022-12-05T03:19:03.222Z,1.10
2022-12-05T03:20:03.097Z,1.10
2022-12-05T03:21:03.004Z,1.10
2022-12-05T03:22:02.948Z,1.10
2022-12-05T03:23:02.911Z,1.10
2022-12-05T03:24:02.820Z,1.10
2022-12-05T03:25:02.644Z,1.10
2022-12-05T03:26:02.545Z,1.10
2022-12-05T03:27:03.581Z,1.10
2022-12-05T03:28:03.440Z,1.10
2022-12-05T03:29:03.367Z,1.10
2022-12-05T03:30:03.245Z,1.10
2022-12-05T03:31:03.206Z,1.10
2022-12-05T03:32:03.072Z,1.10
2022-12-05T03:33:03.043Z,1.10
2022-12-05T03:34:02.842Z,1.10
2022-12-05T03:35:02.809Z,1.10
2022-12-05T03:36:02.798Z,1.10
2022-12-05T03:37:02.777Z,1.10
2022-12-05T03:38:02.780Z,1.10
2022-12-05T03:39:02.770Z,1.10
2022-12-05T03:40:02.735Z,1.10
2022-12-05T03:41:02.627Z,1.10
2022-12-05T03:42:02.608Z,1.10
2022-12-05T03:43:02.590Z,1.10
2022-12-05T03:44:02.628Z,1.10
2022-12-05T03:45:03.531Z,1.10
2022-12-05T03:46:03.567Z,1.10
2022-12-05T03:47:03.486Z,1.10
2022-12-05T03:48:03.362Z,1.10
2022-12-05T03:49:03.242Z,1.10
2022-12-05T03:50:03.186Z,1.10
2022-12-05T03:51:03.066Z,1.10
2022-12-05T03:52:02.970Z,1.10
2022-12-05T03:53:19.865Z,1.10
2022-12-05T03:54:02.650Z,1.10
2022-12-05T03:55:02.694Z,1.10
2022-12-05T03:56:03.547Z,1.10
2022-12-05T03:57:03.554Z,1.10
2022-12-05T03:58:03.474Z,1.10
2022-12-05T03:59:03.454Z,1.10
2022-12-05T04:00:04.307Z,1.10
2022-12-05T04:01:03.522Z,1.10
2022-12-05T04:02:03.359Z,1.10
2022-12-05T04:03:03.347Z,1.10
2022-12-05T04:04:03.154Z,1.10
2022-12-05T04:05:03.116Z,1.10
2022-12-05T04:06:02.996Z,1.10
2022-12-05T04:07:02.962Z,1.10
2022-12-05T04:08:02.987Z,1.10
2022-12-05T04:09:02.941Z,1.10
2022-12-05T04:10:02.775Z,1.10
2022-12-05T04:11:02.776Z,1.10
2022-12-05T04:12:02.655Z,1.10
2022-12-05T04:13:02.643Z,1.10
2022-12-05T04:14:03.510Z,1.10
2022-12-05T04:15:03.379Z,1.10
2022-12-05T04:16:03.416Z,1.10
2022-12-05T04:17:03.363Z,1.10
2022-12-05T04:18:03.332Z,1.10
2022-12-05T04:19:03.106Z,1.10
2022-12-05T04:20:03.037Z,1.10
2022-12-05T04:21:02.891Z,1.10
2022-12-05T04:22:02.744Z,1.10
2022-12-05T04:23:02.710Z,1.10
2022-12-05T04:24:03.556Z,1.10
2022-12-05T04:25:03.467Z,1.10
2022-12-05T04:26:03.491Z,1.10
2022-12-05T04:27:03.574Z,1.10
2022-12-05T04:28:03.425Z,1.10
2022-12-05T04:29:03.354Z,1.10
2022-12-05T04:30:03.231Z,1.10
2022-12-05T04:31:03.154Z,1.10
2022-12-05T04:32:03.132Z,1.10
2022-12-05T04:33:03.157Z,1.10
2022-12-05T04:34:03.030Z,1.10
2022-12-05T04:35:02.960Z,1.10
2022-12-05T04:36:02.998Z,1.10
2022-12-05T04:37:02.907Z,1.10
2022-12-05T04:38:02.929Z,1.10
2022-12-05T04:39:02.988Z,1.10
2022-12-05T04:40:02.943Z,1.10
2022-12-05T04:41:02.818Z,1.10
2022-12-05T04:42:02.864Z,1.10
2022-12-05T04:43:02.732Z,1.10
2022-12-05T04:44:02.604Z,1.10
2022-12-05T04:45:02.617Z,1.10
2022-12-05T04:46:03.620Z,1.10
2022-12-05T04:47:03.517Z,1.10
2022-12-05T04:48:03.377Z,1.10
2022-12-05T04:49:03.367Z,1.10
2022-12-05T04:50:03.288Z,1.10
2022-12-05T04:51:03.295Z,1.10
2022-12-05T04:52:03.182Z,1.10
2022-12-05T04:53:03.242Z,1.10
2022-12-05T04:54:03.061Z,1.10
2022-12-05T04:55:02.977Z,1.10
2022-12-05T04:56:02.896Z,1.10
2022-12-05T04:57:02.773Z,1.10
2022-12-05T04:58:02.714Z,1.10
2022-12-05T04:59:02.545Z,1.10
2022-12-05T05:00:03.521Z,1.10
2022-12-05T05:01:03.544Z,1.10
2022-12-05T05:02:03.419Z,1.10
2022-12-05T05:03:03.386Z,1.10
2022-12-05T05:04:03.270Z,1.20
2022-12-05T05:05:03.287Z,1.10
2022-12-05T05:06:03.143Z,1.10
2022-12-05T05:07:03.112Z,1.10
2022-12-05T05:08:03.161Z,1.20
2022-12-05T05:09:02.966Z,1.20
2022-12-05T05:10:02.834Z,1.20
2022-12-05T05:11:02.739Z,1.20
2022-12-05T05:12:02.613Z,1.20
2022-12-05T05:13:02.675Z,1.20
2022-12-05T05:14:03.504Z,1.20
2022-12-05T05:15:03.481Z,1.20
2022-12-05T05:16:03.365Z,1.20
2022-12-05T05:17:03.315Z,1.20
2022-12-05T05:18:03.200Z,1.20
2022-12-05T05:19:03.180Z,1.20
2022-12-05T05:20:03.107Z,1.20
2022-12-05T05:21:02.971Z,1.20
2022-12-05T05:22:03.019Z,1.20
2022-12-05T05:23:02.943Z,1.20
2022-12-05T05:24:02.816Z,1.20
2022-12-05T05:25:03.088Z,1.20
2022-12-05T05:26:02.844Z,1.20
2022-12-05T05:27:02.873Z,1.20
2022-12-05T05:28:02.784Z,1.20
2022-12-05T05:29:02.767Z,1.20
2022-12-05T05:30:02.818Z,1.20
2022-12-05T05:31:02.739Z,1.20
2022-12-05T05:32:02.612Z,1.20
2022-12-05T05:33:02.629Z,1.20
2022-12-05T05:34:09.046Z,1.20
2022-12-05T05:35:02.574Z,1.20
2022-12-05T05:36:03.625Z,1.20
2022-12-05T05:37:03.464Z,1.20
2022-12-05T05:38:03.436Z,1.20
2022-12-05T05:39:03.445Z,1.20
2022-12-05T05:40:07.817Z,1.20
2022-12-05T05:41:03.171Z,1.20
2022-12-05T05:42:03.063Z,1.20
2022-12-05T05:43:03.133Z,1.20
2022-12-05T05:44:03.445Z,1.20
2022-12-05T05:45:03.334Z,1.20
2022-12-05T05:46:03.213Z,1.20
2022-12-05T05:47:03.128Z,1.20
2022-12-05T05:48:03.042Z,1.20
2022-12-05T05:49:03.043Z,1.20
2022-12-05T05:50:02.899Z,1.20
2022-12-05T05:51:02.855Z,1.20
2022-12-05T05:52:02.699Z,1.20
2022-12-05T05:53:02.699Z,1.20
2022-12-05T05:54:02.672Z,1.20
2022-12-05T05:55:02.655Z,1.20
2022-12-05T05:56:03.579Z,1.20
2022-12-05T05:57:03.437Z,1.20
2022-12-05T05:58:03.371Z,1.20
2022-12-05T05:59:03.258Z,1.20
2022-12-05T06:00:03.171Z,1.20
2022-12-05T06:01:03.066Z,1.20
2022-12-05T06:02:03.114Z,1.20
2022-12-05T06:03:03.311Z,1.20
2022-12-05T06:04:03.306Z,1.20
2022-12-05T06:05:03.176Z,1.20
2022-12-05T06:06:02.989Z,1.20
2022-12-05T06:07:02.946Z,1.20
2022-12-05T06:08:02.901Z,1.20
2022-12-05T06:09:02.918Z,1.20
2022-12-05T06:10:02.938Z,1.20
2022-12-05T06:11:02.785Z,1.20
2022-12-05T06:12:02.765Z,1.20
2022-12-05T06:13:02.647Z,1.20
2022-12-05T06:14:03.586Z,1.20
2022-12-05T06:15:03.476Z,1.20
2022-12-05T06:16:04.449Z,1.20
2022-12-05T06:17:03.339Z,1.20
2022-12-05T06:18:03.202Z,1.20
2022-12-05T06:19:03.118Z,1.20
2022-12-05T06:20:02.911Z,1.20
2022-12-05T06:21:02.792Z,1.20
2022-12-05T06:22:02.853Z,1.20
2022-12-05T06:23:02.876Z,1.20
2022-12-05T06:24:02.590Z,1.20
2022-12-05T06:25:03.524Z,1.20
2022-12-05T06:26:03.555Z,1.20
2022-12-05T06:27:03.428Z,1.20
2022-12-05T06:28:03.279Z,1.20
2022-12-05T06:29:03.158Z,1.20
2022-12-05T06:30:03.073Z,1.20
2022-12-05T06:31:03.037Z,1.20
2022-12-05T06:32:03.019Z,1.20
2022-12-05T06:33:02.856Z,1.20
2022-12-05T06:34:02.755Z,1.20
2022-12-05T06:35:02.644Z,1.20
2022-12-05T06:36:03.612Z,1.20
2022-12-05T06:37:03.484Z,1.20
2022-12-05T06:38:03.400Z,1.20
2022-12-05T06:39:03.471Z,1.20
2022-12-05T06:40:03.287Z,1.20
2022-12-05T06:41:03.289Z,1.20
2022-12-05T06:42:03.254Z,1.20
2022-12-05T06:43:03.155Z,1.20
2022-12-05T06:44:03.054Z,1.20
2022-12-05T06:45:03.033Z,1.20
2022-12-05T06:46:02.930Z,1.20
2022-12-05T06:47:02.949Z,1.20
2022-12-05T06:48:02.801Z,1.30
2022-12-05T06:49:02.749Z,1.20
2022-12-05T06:50:02.742Z,1.20
2022-12-05T06:51:02.669Z,1.30
2022-12-05T06:52:03.547Z,1.20
2022-12-05T06:53:03.523Z,1.30
2022-12-05T06:54:03.329Z,1.30
2022-12-05T06:55:03.371Z,1.20
2022-12-05T06:56:03.297Z,1.30
2022-12-05T06:57:03.171Z,1.30
2022-12-05T06:58:03.020Z,1.30
2022-12-05T06:59:03.008Z,1.30
2022-12-05T07:00:02.899Z,1.30
2022-12-05T07:01:02.878Z,1.30
2022-12-05T07:02:02.928Z,1.30
2022-12-05T07:03:02.905Z,1.30
2022-12-05T07:04:02.731Z,1.30
2022-12-05T07:05:02.651Z,1.30
2022-12-05T07:06:03.518Z,1.30
2022-12-05T07:07:03.463Z,1.30
2022-12-05T07:08:03.446Z,1.30
2022-12-05T07:09:03.227Z,1.30
2022-12-05T07:10:03.211Z,1.30
2022-12-05T07:11:03.036Z,1.30
2022-12-05T07:12:03.015Z,1.30
2022-12-05T07:13:03.006Z,1.30
2022-12-05T07:14:10.371Z,1.30
2022-12-05T07:15:02.763Z,1.30
2022-12-05T07:16:02.871Z,1.30
2022-12-05T07:17:02.896Z,1.30
2022-12-05T07:18:02.772Z,1.30
2022-12-05T07:19:02.624Z,1.30
2022-12-05T07:20:02.667Z,1.30
2022-12-05T07:21:11.543Z,1.30
2022-12-05T07:22:03.410Z,1.30
2022-12-05T07:23:03.385Z,1.30
2022-12-05T07:24:03.217Z,1.30
2022-12-05T07:25:03.151Z,1.30
2022-12-05T07:26:03.078Z,1.30
2022-12-05T07:27:03.167Z,1.30
2022-12-05T07:28:02.920Z,1.30
2022-12-05T07:29:02.983Z,1.40
2022-12-05T07:30:02.953Z,1.40
2022-12-05T07:31:02.789Z,1.30
2022-12-05T07:32:02.745Z,1.40
2022-12-05T07:33:03.588Z,1.40
2022-12-05T07:34:03.477Z,1.40
2022-12-05T07:35:03.396Z,1.40
2022-12-05T07:36:02.583Z,1.40
2022-12-05T07:37:03.487Z,1.40
2022-12-05T07:38:03.501Z,1.40
2022-12-05T07:39:03.422Z,1.40
2022-12-05T07:40:03.334Z,1.40
2022-12-05T07:41:03.245Z,1.40
2022-12-05T07:42:03.225Z,1.40
2022-12-05T07:43:03.244Z,1.40
2022-12-05T07:44:03.240Z,1.40
2022-12-05T07:45:03.109Z,1.40
2022-12-05T07:46:02.978Z,1.40
2022-12-05T07:47:03.001Z,1.40
2022-12-05T07:48:02.933Z,1.40
2022-12-05T07:49:02.751Z,1.40
2022-12-05T07:50:02.778Z,1.40
2022-12-05T07:51:02.687Z,1.40
2022-12-05T07:52:02.588Z,1.50
2022-12-05T07:53:02.596Z,1.40
2022-12-05T07:54:03.449Z,1.50
2022-12-05T07:55:03.436Z,1.50
2022-12-05T07:56:03.470Z,1.50
2022-12-05T07:57:03.359Z,1.40
2022-12-05T07:58:03.265Z,1.50
2022-12-05T07:59:03.245Z,1.50
2022-12-05T08:00:03.076Z,1.50
2022-12-05T08:01:03.010Z,1.50
2022-12-05T08:02:02.927Z,1.50
2022-12-05T08:03:02.999Z,1.50
2022-12-05T08:04:02.925Z,1.50
2022-12-05T08:05:03.237Z,1.50
2022-12-05T08:06:03.134Z,1.50
2022-12-05T08:07:03.115Z,1.50
2022-12-05T08:08:03.159Z,1.50
2022-12-05T08:09:03.038Z,1.50
2022-12-05T08:10:02.847Z,1.50
2022-12-05T08:11:02.815Z,1.50
2022-12-05T08:12:02.746Z,1.60
2022-12-05T08:13:03.624Z,1.60
2022-12-05T08:14:03.453Z,1.60
2022-12-05T08:15:03.374Z,1.60
2022-12-05T08:16:03.308Z,1.60
2022-12-05T08:17:03.285Z,1.60
2022-12-05T08:18:03.232Z,1.60
2022-12-05T08:19:03.073Z,1.60
2022-12-05T08:20:03.086Z,1.60
2022-12-05T08:21:02.875Z,1.60
2022-12-05T08:22:02.966Z,1.60
2022-12-05T08:23:02.783Z,1.60
2022-12-05T08:24:02.706Z,1.60
2022-12-05T08:25:02.704Z,1.60
2022-12-05T08:26:02.691Z,1.60
2022-12-05T08:27:03.541Z,1.60
2022-12-05T08:28:03.566Z,1.60
2022-12-05T08:29:03.411Z,1.60
2022-12-05T08:30:03.438Z,1.60
2022-12-05T08:31:03.443Z,1.70
2022-12-05T08:32:03.240Z,1.70
2022-12-05T08:33:03.208Z,1.70
2022-12-05T08:34:03.086Z,1.70
2022-12-05T08:35:02.595Z,1.70
2022-12-05T08:36:03.544Z,1.70
2022-12-05T08:37:03.469Z,1.70
2022-12-05T08:38:03.337Z,1.70
2022-12-05T08:39:03.377Z,1.70
2022-12-05T08:40:03.135Z,1.70
2022-12-05T08:41:03.072Z,1.70
2022-12-05T08:42:03.001Z,1.70
2022-12-05T08:43:02.805Z,1.70
2022-12-05T08:45:02.683Z,1.80
2022-12-05T08:46:02.641Z,1.80
2022-12-05T08:47:02.601Z,1.80
2022-12-05T08:48:02.622Z,1.80
2022-12-05T08:49:03.515Z,1.80
2022-12-05T08:50:03.486Z,1.80
2022-12-05T08:51:03.472Z,1.80
2022-12-05T08:52:03.318Z,1.80
2022-12-05T08:53:03.239Z,1.80
2022-12-05T08:54:03.174Z,1.90
2022-12-05T08:55:03.132Z,1.90
2022-12-05T08:56:03.065Z,1.90
2022-12-05T08:57:02.938Z,1.90
2022-12-05T08:58:02.874Z,1.90
2022-12-05T08:59:05.504Z,1.90
2022-12-05T09:00:02.608Z,1.90
2022-12-05T09:01:03.576Z,1.90
2022-12-05T09:02:03.458Z,1.90
2022-12-05T09:03:03.370Z,1.90
2022-12-05T09:04:03.194Z,2.00
2022-12-05T09:05:19.260Z,2.00
2022-12-05T09:06:03.103Z,2.00
2022-12-05T09:07:03.062Z,2.00
2022-12-05T09:08:03.061Z,2.00
2022-12-05T09:09:02.872Z,2.00
2022-12-05T09:10:02.825Z,2.00
2022-12-05T09:11:03.007Z,2.00
2022-12-05T09:12:02.807Z,2.00
2022-12-05T09:13:02.740Z,2.10
2022-12-05T09:14:02.568Z,2.00
2022-12-05T09:15:03.500Z,2.10
2022-12-05T09:16:03.610Z,2.10
2022-12-05T09:17:03.541Z,2.10
2022-12-05T09:18:02.742Z,2.10
2022-12-05T09:19:02.733Z,2.10
2022-12-05T09:20:02.680Z,2.10
2022-12-05T09:21:03.585Z,2.10
2022-12-05T09:22:03.470Z,2.10
2022-12-05T09:23:03.430Z,2.10
2022-12-05T09:24:03.357Z,2.10
2022-12-05T09:25:03.370Z,2.10
2022-12-05T09:26:03.215Z,2.10
2022-12-05T09:27:03.156Z,2.10
2022-12-05T09:28:03.087Z,2.10
2022-12-05T09:29:03.027Z,2.10
2022-12-05T09:30:02.931Z,2.20
2022-12-05T09:31:02.844Z,2.10
2022-12-05T09:32:02.795Z,2.20
2022-12-05T09:33:02.608Z,2.10
2022-12-05T09:34:02.666Z,2.10
2022-12-05T09:35:02.623Z,2.10
2022-12-05T09:36:03.551Z,2.10
2022-12-05T09:37:23.058Z,2.10
2022-12-05T09:38:03.502Z,2.10
2022-12-05T09:39:03.371Z,2.10
2022-12-05T09:40:03.279Z,2.10
2022-12-05T09:41:03.218Z,2.10
2022-12-05T09:42:03.077Z,2.10
2022-12-05T09:43:03.023Z,2.10
2022-12-05T09:44:02.981Z,2.10
2022-12-05T09:45:03.036Z,2.10
2022-12-05T09:46:02.972Z,2.10
2022-12-05T09:47:02.939Z,2.10
2022-12-05T09:48:02.805Z,2.10
2022-12-05T09:49:02.703Z,2.10
2022-12-05T09:50:02.566Z,2.10
2022-12-05T09:51:02.615Z,2.10
2022-12-05T09:52:03.530Z,2.10
2022-12-05T09:53:03.429Z,2.10
2022-12-05T09:54:03.370Z,2.10
2022-12-05T09:55:03.265Z,2.10
2022-12-05T09:56:03.119Z,2.20
2022-12-05T09:57:03.104Z,2.20
2022-12-05T09:58:02.981Z,2.20
2022-12-05T09:59:02.876Z,2.20
2022-12-05T10:00:02.882Z,2.20
2022-12-05T10:01:02.846Z,2.20
2022-12-05T10:02:02.906Z,2.20
2022-12-05T10:03:02.742Z,2.10
2022-12-05T10:04:02.680Z,2.20
2022-12-05T10:05:03.141Z,2.10
2022-12-05T10:06:03.468Z,2.10
2022-12-05T10:07:03.522Z,2.20
2022-12-05T10:08:03.615Z,2.10
2022-12-05T10:09:03.397Z,2.20
2022-12-05T10:10:03.326Z,2.20
2022-12-05T10:11:03.337Z,2.20
2022-12-05T10:12:03.172Z,2.20
2022-12-05T10:13:03.039Z,2.20
2022-12-05T10:14:03.011Z,2.20
2022-12-05T10:15:02.873Z,2.20
2022-12-05T10:16:02.827Z,2.20
2022-12-05T10:17:02.856Z,2.20
2022-12-05T10:18:02.795Z,2.20
2022-12-05T10:19:02.760Z,2.20
2022-12-05T10:20:02.681Z,2.20
2022-12-05T10:21:03.616Z,2.20
2022-12-05T10:22:03.425Z,2.20
2022-12-05T10:23:03.311Z,2.20
2022-12-05T10:24:03.371Z,2.20
2022-12-05T10:25:03.321Z,2.20
2022-12-05T10:26:03.180Z,2.20
2022-12-05T10:27:03.296Z,2.20
2022-12-05T10:28:03.140Z,2.20
2022-12-05T10:29:03.023Z,2.20
2022-12-05T10:30:02.814Z,2.30
2022-12-05T10:31:02.764Z,2.30
2022-12-05T10:32:02.606Z,2.30
2022-12-05T10:33:06.294Z,2.30
2022-12-05T10:34:03.480Z,2.20
2022-12-05T10:35:03.393Z,2.30
2022-12-05T10:36:03.325Z,2.30
2022-12-05T10:37:03.335Z,2.20
2022-12-05T10:38:03.212Z,2.30
2022-12-05T10:39:05.772Z,2.30
2022-12-05T10:40:03.355Z,2.30
2022-12-05T10:41:03.233Z,2.30
2022-12-05T10:42:03.229Z,2.30
2022-12-05T10:43:03.092Z,2.30
2022-12-05T10:44:03.057Z,2.30
2022-12-05T10:45:02.950Z,2.30
2022-12-05T10:46:02.917Z,2.30
2022-12-05T10:47:02.701Z,2.30
2022-12-05T10:48:02.596Z,2.30
2022-12-05T10:49:02.595Z,2.30
2022-12-05T10:50:03.591Z,2.30
2022-12-05T10:51:03.500Z,2.30
2022-12-05T10:52:03.497Z,2.30
2022-12-05T10:53:03.576Z,2.30
2022-12-05T10:54:03.452Z,2.30
2022-12-05T10:55:03.353Z,2.30
2022-12-05T10:56:30.091Z,2.30
2022-12-05T10:57:03.323Z,2.30
2022-12-05T10:58:03.324Z,2.30
2022-12-05T10:59:03.201Z,2.30
2022-12-05T11:00:03.060Z,2.30
2022-12-05T11:01:03.130Z,2.30
2022-12-05T11:02:03.074Z,2.30
2022-12-05T11:03:03.056Z,2.30
2022-12-05T11:04:02.931Z,2.30
2022-12-05T11:05:03.310Z,2.30
2022-12-05T11:06:02.940Z,2.30
2022-12-05T11:07:02.635Z,2.30
2022-12-05T11:08:03.591Z,2.30
2022-12-05T11:09:04.996Z,2.30
2022-12-05T11:10:03.509Z,2.30
2022-12-05T11:11:03.426Z,2.30
2022-12-05T11:12:03.370Z,2.30
2022-12-05T11:13:03.214Z,2.30
2022-12-05T11:14:03.188Z,2.30
2022-12-05T11:15:03.108Z,2.20
2022-12-05T11:16:03.055Z,2.30
2022-12-05T11:17:02.970Z,2.30
2022-12-05T11:18:02.898Z,2.30
2022-12-05T11:19:02.905Z,2.30
2022-12-05T11:20:02.906Z,2.30
2022-12-05T11:21:02.824Z,2.30
2022-12-05T11:22:03.569Z,2.30
2022-12-05T11:23:02.814Z,2.30
2022-12-05T11:24:02.804Z,2.30
2022-12-05T11:25:03.160Z,2.30
2022-12-05T11:26:03.055Z,2.30
2022-12-05T11:27:02.970Z,2.40
2022-12-05T11:28:02.946Z,2.40
2022-12-05T11:29:02.779Z,2.40
2022-12-05T11:30:02.669Z,2.40
2022-12-05T11:31:02.609Z,2.40
2022-12-05T11:32:03.515Z,2.40
2022-12-05T11:33:03.550Z,2.40
2022-12-05T11:34:03.389Z,2.40
2022-12-05T11:35:03.493Z,2.50
2022-12-05T11:36:03.424Z,2.50
2022-12-05T11:37:03.352Z,2.50
2022-12-05T11:38:03.259Z,2.50
2022-12-05T11:39:03.057Z,2.50
2022-12-05T11:40:03.109Z,2.50
2022-12-05T11:41:03.031Z,2.50
2022-12-05T11:42:02.972Z,2.50
2022-12-05T11:43:02.978Z,2.50
2022-12-05T11:44:03.034Z,2.50
2022-12-05T11:45:02.937Z,2.50
2022-12-05T11:46:02.828Z,2.50
2022-12-05T11:47:02.939Z,2.50
2022-12-05T11:48:02.764Z,2.50
2022-12-05T11:49:02.820Z,2.50
2022-12-05T11:50:02.666Z,2.50
2022-12-05T11:51:02.628Z,2.50
2022-12-05T11:52:02.635Z,2.50
2022-12-05T11:53:03.584Z,2.50
2022-12-05T11:54:03.450Z,2.50
2022-12-05T11:55:05.243Z,2.50
2022-12-05T11:56:03.394Z,2.50
2022-12-05T11:57:03.314Z,2.50
2022-12-05T11:58:03.214Z,2.50
2022-12-05T11:59:03.190Z,2.50
2022-12-05T12:00:03.129Z,2.50
2022-12-05T12:01:03.085Z,2.50
2022-12-05T12:02:03.105Z,2.50
2022-12-05T12:03:02.920Z,2.50
2022-12-05T12:04:02.806Z,2.50
2022-12-05T12:05:02.793Z,2.50
2022-12-05T12:06:02.680Z,2.50
2022-12-05T12:07:02.810Z,2.50
2022-12-05T12:08:02.683Z,2.50
2022-12-05T12:09:03.620Z,2.50
2022-12-05T12:10:07.085Z,2.50
2022-12-05T12:11:03.467Z,2.50
2022-12-05T12:12:03.437Z,2.50
2022-12-05T12:13:03.371Z,2.50
2022-12-05T12:14:03.423Z,2.50
2022-12-05T12:15:03.282Z,2.50
2022-12-05T12:16:08.182Z,2.50
2022-12-05T12:17:03.282Z,2.50
2022-12-05T12:18:03.094Z,2.50
2022-12-05T12:19:03.074Z,2.50
2022-12-05T12:20:02.926Z,2.60
2022-12-05T12:21:02.881Z,2.60
2022-12-05T12:22:02.802Z,2.60
2022-12-05T12:23:02.870Z,2.60
2022-12-05T12:24:02.815Z,2.60
2022-12-05T12:25:02.714Z,2.60
2022-12-05T12:26:02.605Z,2.60
2022-12-05T12:27:03.657Z,2.60
2022-12-05T12:28:04.577Z,2.60
2022-12-05T12:29:03.307Z,2.60
2022-12-05T12:30:03.226Z,2.60
2022-12-05T12:31:03.141Z,2.70
2022-12-05T12:32:03.179Z,2.60
2022-12-05T12:33:03.089Z,2.60
2022-12-05T12:34:02.948Z,2.70
2022-12-05T12:35:02.858Z,2.70
2022-12-05T12:36:02.748Z,2.70
2022-12-05T12:37:02.694Z,2.70
2022-12-05T12:38:02.666Z,2.70
2022-12-05T12:39:02.786Z,2.70
2022-12-05T12:40:08.581Z,2.70
2022-12-05T12:41:03.483Z,2.70
2022-12-05T12:42:03.352Z,2.70
2022-12-05T12:43:03.386Z,2.70
2022-12-05T12:44:03.399Z,2.70
2022-12-05T12:45:03.536Z,2.70
2022-12-05T12:46:06.617Z,2.70
2022-12-05T12:47:03.380Z,2.70
2022-12-05T12:48:03.058Z,2.70
2022-12-05T12:49:03.245Z,2.70
2022-12-05T12:50:03.071Z,2.70
2022-12-05T12:51:02.951Z,2.70
2022-12-05T12:52:02.964Z,2.70
2022-12-05T12:53:02.811Z,2.70
2022-12-05T12:54:02.673Z,2.80
2022-12-05T12:55:13.994Z,2.70
2022-12-05T12:56:02.678Z,2.80
2022-12-05T12:57:02.685Z,2.80
2022-12-05T12:58:03.668Z,2.80
2022-12-05T12:59:03.513Z,2.80
2022-12-05T13:00:03.677Z,2.80
2022-12-05T13:01:02.706Z,2.80
2022-12-05T13:02:03.579Z,2.80
2022-12-05T13:03:03.727Z,2.80
2022-12-05T13:04:03.351Z,2.80
2022-12-05T13:05:08.420Z,2.80
2022-12-05T13:06:03.351Z,2.90
2022-12-05T13:07:03.219Z,2.90
2022-12-05T13:08:03.146Z,2.90
2022-12-05T13:09:03.206Z,2.90
2022-12-05T13:10:03.101Z,2.90
2022-12-05T13:11:03.060Z,2.90
2022-12-05T13:12:03.087Z,2.90
2022-12-05T13:13:03.050Z,3.00
2022-12-05T13:14:03.034Z,3.00
2022-12-05T13:15:02.957Z,3.00
2022-12-05T13:16:02.963Z,3.00
2022-12-05T13:17:03.124Z,3.00
2022-12-05T13:18:02.791Z,3.00
2022-12-05T13:19:02.785Z,3.00